sensor_id;sensor_type;location;lat;lon;timestamp;P1;durP1;ratioP1;P2;durP2;ratioP2
6452;SDS011;3259;51.080;13.712;2022-08-01T00:00:54;2.75;;;1.25;;
6452;SDS011;3259;51.080;13.712;2022-08-01T00:03:42;1.52;;;1.02;;
6452;SDS011;3259;51.080;13.712;2022-08-01T00:06:31;2.17;;;1.30;;
6452;SDS011;3259;51.080;13.712;2022-08-01T00:09:19;3.20;;;1.17;;
6452;SDS011;3259;51.080;13.712;2022-08-01T00:12:10;1.83;;;1.20;;
6452;SDS011;3259;51.080;13.712;2022-08-01T00:15:00;0.80;;;0.70;;
6452;SDS011;3259;51.080;13.712;2022-08-01T00:17:51;1.50;;;1.40;;
6452;SDS011;3259;51.080;13.712;2022-08-01T00:20:39;2.15;;;1.15;;
6452;SDS011;3259;51.080;13.712;2022-08-01T00:23:28;2.25;;;1.35;;
6452;SDS011;3259;51.080;13.712;2022-08-01T00:26:16;0.88;;;0.88;;
6452;SDS011;3259;51.080;13.712;2022-08-01T00:29:05;1.48;;;1.30;;
6452;SDS011;3259;51.080;13.712;2022-08-01T00:32:15;1.50;;;1.13;;
6452;SDS011;3259;51.080;13.712;2022-08-01T00:35:04;1.55;;;0.90;;
6452;SDS011;3259;51.080;13.712;2022-08-01T00:37:52;1.40;;;0.88;;
6452;SDS011;3259;51.080;13.712;2022-08-01T00:40:41;1.25;;;1.13;;
6452;SDS011;3259;51.080;13.712;2022-08-01T00:43:32;1.00;;;1.00;;
6452;SDS011;3259;51.080;13.712;2022-08-01T00:46:20;1.15;;;0.95;;
6452;SDS011;3259;51.080;13.712;2022-08-01T00:49:10;0.77;;;0.77;;
6452;SDS011;3259;51.080;13.712;2022-08-01T00:51:59;3.30;;;1.23;;
6452;SDS011;3259;51.080;13.712;2022-08-01T00:54:49;1.10;;;1.02;;
6452;SDS011;3259;51.080;13.712;2022-08-01T00:57:38;1.42;;;1.33;;
6452;SDS011;3259;51.080;13.712;2022-08-01T01:00:47;1.40;;;1.30;;
6452;SDS011;3259;51.080;13.712;2022-08-01T01:03:39;0.88;;;0.88;;
6452;SDS011;3259;51.080;13.712;2022-08-01T01:06:48;3.10;;;1.00;;
6452;SDS011;3259;51.080;13.712;2022-08-01T01:09:42;1.23;;;1.13;;
6452;SDS011;3259;51.080;13.712;2022-08-01T01:12:35;0.80;;;0.80;;
6452;SDS011;3259;51.080;13.712;2022-08-01T01:15:29;0.93;;;0.77;;
6452;SDS011;3259;51.080;13.712;2022-08-01T01:18:23;1.65;;;0.93;;
6452;SDS011;3259;51.080;13.712;2022-08-01T01:21:25;1.00;;;1.00;;
6452;SDS011;3259;51.080;13.712;2022-08-01T01:24:21;1.00;;;1.00;;
6452;SDS011;3259;51.080;13.712;2022-08-01T01:27:18;2.40;;;0.88;;
6452;SDS011;3259;51.080;13.712;2022-08-01T01:30:11;3.80;;;0.85;;
6452;SDS011;3259;51.080;13.712;2022-08-01T01:33:02;1.10;;;0.95;;
6452;SDS011;3259;51.080;13.712;2022-08-01T01:35:52;1.60;;;1.00;;
6452;SDS011;3259;51.080;13.712;2022-08-01T01:38:45;4.80;;;1.25;;
6452;SDS011;3259;51.080;13.712;2022-08-01T01:41:34;0.95;;;0.93;;
6452;SDS011;3259;51.080;13.712;2022-08-01T01:44:25;4.47;;;1.40;;
6452;SDS011;3259;51.080;13.712;2022-08-01T01:47:17;3.47;;;1.00;;
6452;SDS011;3259;51.080;13.712;2022-08-01T01:50:06;2.85;;;0.95;;
6452;SDS011;3259;51.080;13.712;2022-08-01T01:52:57;2.13;;;1.17;;
6452;SDS011;3259;51.080;13.712;2022-08-01T01:55:46;4.95;;;0.90;;
6452;SDS011;3259;51.080;13.712;2022-08-01T01:58:37;0.90;;;0.90;;
6452;SDS011;3259;51.080;13.712;2022-08-01T02:01:26;0.90;;;0.80;;
6452;SDS011;3259;51.080;13.712;2022-08-01T02:04:40;1.83;;;1.20;;
6452;SDS011;3259;51.080;13.712;2022-08-01T02:07:30;1.75;;;0.93;;
6452;SDS011;3259;51.080;13.712;2022-08-01T02:10:20;0.75;;;0.75;;
6452;SDS011;3259;51.080;13.712;2022-08-01T02:13:14;1.23;;;1.13;;
6452;SDS011;3259;51.080;13.712;2022-08-01T02:16:06;0.75;;;0.75;;
6452;SDS011;3259;51.080;13.712;2022-08-01T02:18:58;1.30;;;1.05;;
6452;SDS011;3259;51.080;13.712;2022-08-01T02:21:49;2.00;;;1.13;;
6452;SDS011;3259;51.080;13.712;2022-08-01T02:24:40;1.30;;;1.20;;
6452;SDS011;3259;51.080;13.712;2022-08-01T02:27:33;1.58;;;1.45;;
6452;SDS011;3259;51.080;13.712;2022-08-01T02:30:29;1.45;;;1.13;;
6452;SDS011;3259;51.080;13.712;2022-08-01T02:33:22;3.92;;;3.63;;
6452;SDS011;3259;51.080;13.712;2022-08-01T02:36:13;6.00;;;3.35;;
6452;SDS011;3259;51.080;13.712;2022-08-01T02:39:20;5.20;;;2.30;;
6452;SDS011;3259;51.080;13.712;2022-08-01T02:42:09;1.70;;;1.60;;
6452;SDS011;3259;51.080;13.712;2022-08-01T02:44:59;2.38;;;1.60;;
6452;SDS011;3259;51.080;13.712;2022-08-01T02:47:48;2.53;;;1.25;;
6452;SDS011;3259;51.080;13.712;2022-08-01T02:50:38;1.27;;;0.98;;
6452;SDS011;3259;51.080;13.712;2022-08-01T02:53:29;1.30;;;1.30;;
6452;SDS011;3259;51.080;13.712;2022-08-01T02:56:31;1.15;;;0.95;;
6452;SDS011;3259;51.080;13.712;2022-08-01T02:59:23;1.23;;;0.98;;
6452;SDS011;3259;51.080;13.712;2022-08-01T03:02:12;0.98;;;0.98;;
6452;SDS011;3259;51.080;13.712;2022-08-01T03:05:04;1.73;;;1.17;;
6452;SDS011;3259;51.080;13.712;2022-08-01T03:07:55;2.35;;;1.30;;
6452;SDS011;3259;51.080;13.712;2022-08-01T03:10:49;2.17;;;1.83;;
6452;SDS011;3259;51.080;13.712;2022-08-01T03:13:40;1.15;;;1.05;;
6452;SDS011;3259;51.080;13.712;2022-08-01T03:16:30;1.02;;;1.02;;
6452;SDS011;3259;51.080;13.712;2022-08-01T03:19:19;0.93;;;0.93;;
6452;SDS011;3259;51.080;13.712;2022-08-01T03:22:09;1.60;;;1.50;;
6452;SDS011;3259;51.080;13.712;2022-08-01T03:25:00;1.95;;;1.42;;
6452;SDS011;3259;51.080;13.712;2022-08-01T03:27:51;0.90;;;0.90;;
6452;SDS011;3259;51.080;13.712;2022-08-01T03:30:44;1.33;;;0.82;;
6452;SDS011;3259;51.080;13.712;2022-08-01T03:33:33;1.77;;;1.10;;
6452;SDS011;3259;51.080;13.712;2022-08-01T03:36:24;2.53;;;1.33;;
6452;SDS011;3259;51.080;13.712;2022-08-01T03:39:14;2.80;;;1.08;;
6452;SDS011;3259;51.080;13.712;2022-08-01T03:42:05;2.67;;;1.50;;
6452;SDS011;3259;51.080;13.712;2022-08-01T03:44:58;1.33;;;1.27;;
6452;SDS011;3259;51.080;13.712;2022-08-01T03:47:51;1.45;;;1.35;;
6452;SDS011;3259;51.080;13.712;2022-08-01T03:50:43;1.10;;;1.10;;
6452;SDS011;3259;51.080;13.712;2022-08-01T03:53:34;1.50;;;1.40;;
6452;SDS011;3259;51.080;13.712;2022-08-01T03:56:28;2.20;;;1.08;;
6452;SDS011;3259;51.080;13.712;2022-08-01T03:59:18;2.47;;;1.00;;
6452;SDS011;3259;51.080;13.712;2022-08-01T04:02:07;1.27;;;1.17;;
6452;SDS011;3259;51.080;13.712;2022-08-01T04:04:58;1.40;;;1.30;;
6452;SDS011;3259;51.080;13.712;2022-08-01T04:07:47;0.93;;;0.93;;
6452;SDS011;3259;51.080;13.712;2022-08-01T04:10:42;1.08;;;0.80;;
6452;SDS011;3259;51.080;13.712;2022-08-01T04:13:30;2.55;;;1.30;;
6452;SDS011;3259;51.080;13.712;2022-08-01T04:16:23;1.90;;;1.17;;
6452;SDS011;3259;51.080;13.712;2022-08-01T04:19:11;2.78;;;1.00;;
6452;SDS011;3259;51.080;13.712;2022-08-01T04:22:02;2.45;;;1.10;;
6452;SDS011;3259;51.080;13.712;2022-08-01T04:24:53;1.13;;;0.95;;
6452;SDS011;3259;51.080;13.712;2022-08-01T04:27:45;2.25;;;1.40;;
6452;SDS011;3259;51.080;13.712;2022-08-01T04:30:39;1.80;;;1.20;;
6452;SDS011;3259;51.080;13.712;2022-08-01T04:33:28;4.22;;;1.25;;
6452;SDS011;3259;51.080;13.712;2022-08-01T04:36:19;1.80;;;1.02;;
6452;SDS011;3259;51.080;13.712;2022-08-01T04:39:09;2.65;;;0.82;;
6452;SDS011;3259;51.080;13.712;2022-08-01T04:41:59;1.95;;;1.30;;
6452;SDS011;3259;51.080;13.712;2022-08-01T04:44:50;1.25;;;1.15;;
6452;SDS011;3259;51.080;13.712;2022-08-01T04:47:39;3.13;;;1.30;;
6452;SDS011;3259;51.080;13.712;2022-08-01T04:50:30;1.30;;;1.27;;
6452;SDS011;3259;51.080;13.712;2022-08-01T04:53:19;4.03;;;1.55;;
6452;SDS011;3259;51.080;13.712;2022-08-01T04:56:10;3.55;;;1.60;;
6452;SDS011;3259;51.080;13.712;2022-08-01T04:59:00;2.05;;;1.00;;
6452;SDS011;3259;51.080;13.712;2022-08-01T05:02:06;1.85;;;1.30;;
6452;SDS011;3259;51.080;13.712;2022-08-01T05:04:56;2.58;;;1.38;;
6452;SDS011;3259;51.080;13.712;2022-08-01T05:07:45;2.13;;;1.33;;
6452;SDS011;3259;51.080;13.712;2022-08-01T05:10:33;1.55;;;1.45;;
6452;SDS011;3259;51.080;13.712;2022-08-01T05:13:23;1.08;;;1.08;;
6452;SDS011;3259;51.080;13.712;2022-08-01T05:16:12;1.63;;;1.00;;
6452;SDS011;3259;51.080;13.712;2022-08-01T05:19:00;4.40;;;1.50;;
6452;SDS011;3259;51.080;13.712;2022-08-01T05:21:49;2.88;;;1.25;;
6452;SDS011;3259;51.080;13.712;2022-08-01T05:24:45;1.60;;;0.98;;
6452;SDS011;3259;51.080;13.712;2022-08-01T05:27:35;1.20;;;1.20;;
6452;SDS011;3259;51.080;13.712;2022-08-01T05:30:30;1.90;;;1.45;;
6452;SDS011;3259;51.080;13.712;2022-08-01T05:33:18;2.85;;;1.30;;
6452;SDS011;3259;51.080;13.712;2022-08-01T05:36:08;6.68;;;1.42;;
6452;SDS011;3259;51.080;13.712;2022-08-01T05:38:56;3.10;;;1.23;;
6452;SDS011;3259;51.080;13.712;2022-08-01T05:41:45;1.33;;;1.23;;
6452;SDS011;3259;51.080;13.712;2022-08-01T05:44:33;0.80;;;0.80;;
6452;SDS011;3259;51.080;13.712;2022-08-01T05:47:23;1.17;;;0.82;;
6452;SDS011;3259;51.080;13.712;2022-08-01T05:50:11;1.00;;;1.00;;
6452;SDS011;3259;51.080;13.712;2022-08-01T05:53:00;0.90;;;0.90;;
6452;SDS011;3259;51.080;13.712;2022-08-01T05:55:49;2.17;;;0.80;;
6452;SDS011;3259;51.080;13.712;2022-08-01T05:58:37;1.25;;;0.88;;
6452;SDS011;3259;51.080;13.712;2022-08-01T06:01:26;4.65;;;0.90;;
6452;SDS011;3259;51.080;13.712;2022-08-01T06:04:16;1.20;;;1.10;;
6452;SDS011;3259;51.080;13.712;2022-08-01T06:07:04;0.80;;;0.80;;
6452;SDS011;3259;51.080;13.712;2022-08-01T06:09:53;3.45;;;1.20;;
6452;SDS011;3259;51.080;13.712;2022-08-01T06:12:41;1.15;;;1.02;;
6452;SDS011;3259;51.080;13.712;2022-08-01T06:15:30;0.95;;;0.95;;
6452;SDS011;3259;51.080;13.712;2022-08-01T06:18:19;1.20;;;1.20;;
6452;SDS011;3259;51.080;13.712;2022-08-01T06:21:09;0.82;;;0.82;;
6452;SDS011;3259;51.080;13.712;2022-08-01T06:23:57;1.17;;;1.08;;
6452;SDS011;3259;51.080;13.712;2022-08-01T06:26:46;1.10;;;1.00;;
6452;SDS011;3259;51.080;13.712;2022-08-01T06:29:34;1.05;;;1.02;;
6452;SDS011;3259;51.080;13.712;2022-08-01T06:32:23;0.80;;;0.80;;
6452;SDS011;3259;51.080;13.712;2022-08-01T06:35:13;0.95;;;0.95;;
6452;SDS011;3259;51.080;13.712;2022-08-01T06:38:03;0.90;;;0.90;;
6452;SDS011;3259;51.080;13.712;2022-08-01T06:40:52;1.85;;;1.10;;
6452;SDS011;3259;51.080;13.712;2022-08-01T06:43:41;0.70;;;0.50;;
6452;SDS011;3259;51.080;13.712;2022-08-01T06:46:29;0.52;;;0.52;;
6452;SDS011;3259;51.080;13.712;2022-08-01T06:49:20;0.63;;;0.63;;
6452;SDS011;3259;51.080;13.712;2022-08-01T06:52:09;1.85;;;0.85;;
6452;SDS011;3259;51.080;13.712;2022-08-01T06:54:59;0.95;;;0.95;;
6452;SDS011;3259;51.080;13.712;2022-08-01T06:57:49;1.58;;;0.85;;
6452;SDS011;3259;51.080;13.712;2022-08-01T07:00:39;0.90;;;0.90;;
6452;SDS011;3259;51.080;13.712;2022-08-01T07:03:28;0.90;;;0.90;;
6452;SDS011;3259;51.080;13.712;2022-08-01T07:06:37;1.08;;;0.85;;
6452;SDS011;3259;51.080;13.712;2022-08-01T07:09:26;0.65;;;0.65;;
6452;SDS011;3259;51.080;13.712;2022-08-01T07:12:16;1.67;;;0.90;;
6452;SDS011;3259;51.080;13.712;2022-08-01T07:15:05;3.78;;;1.35;;
6452;SDS011;3259;51.080;13.712;2022-08-01T07:17:54;0.80;;;0.80;;
6452;SDS011;3259;51.080;13.712;2022-08-01T07:20:43;1.95;;;0.73;;
6452;SDS011;3259;51.080;13.712;2022-08-01T07:23:38;1.55;;;0.90;;
6452;SDS011;3259;51.080;13.712;2022-08-01T07:26:31;1.55;;;0.80;;
6452;SDS011;3259;51.080;13.712;2022-08-01T07:29:22;1.27;;;0.68;;
6452;SDS011;3259;51.080;13.712;2022-08-01T07:32:11;2.17;;;0.88;;
6452;SDS011;3259;51.080;13.712;2022-08-01T07:35:04;1.17;;;0.98;;
6452;SDS011;3259;51.080;13.712;2022-08-01T07:37:53;2.28;;;0.68;;
6452;SDS011;3259;51.080;13.712;2022-08-01T07:40:41;0.50;;;0.50;;
6452;SDS011;3259;51.080;13.712;2022-08-01T07:43:30;2.70;;;0.80;;
6452;SDS011;3259;51.080;13.712;2022-08-01T07:46:20;1.25;;;0.70;;
6452;SDS011;3259;51.080;13.712;2022-08-01T07:49:08;0.90;;;0.60;;
6452;SDS011;3259;51.080;13.712;2022-08-01T07:51:57;0.75;;;0.50;;
6452;SDS011;3259;51.080;13.712;2022-08-01T07:54:50;1.95;;;1.23;;
6452;SDS011;3259;51.080;13.712;2022-08-01T07:57:38;1.70;;;1.58;;
6452;SDS011;3259;51.080;13.712;2022-08-01T08:00:27;1.30;;;1.20;;
6452;SDS011;3259;51.080;13.712;2022-08-01T08:03:17;2.33;;;0.82;;
6452;SDS011;3259;51.080;13.712;2022-08-01T08:06:06;0.88;;;0.77;;
6452;SDS011;3259;51.080;13.712;2022-08-01T08:08:54;0.85;;;0.85;;
6452;SDS011;3259;51.080;13.712;2022-08-01T08:11:43;2.22;;;0.60;;
6452;SDS011;3259;51.080;13.712;2022-08-01T08:14:34;0.90;;;0.82;;
6452;SDS011;3259;51.080;13.712;2022-08-01T08:17:22;1.15;;;1.02;;
6452;SDS011;3259;51.080;13.712;2022-08-01T08:20:12;1.02;;;0.70;;
6452;SDS011;3259;51.080;13.712;2022-08-01T08:23:02;1.08;;;0.60;;
6452;SDS011;3259;51.080;13.712;2022-08-01T08:26:29;1.25;;;0.75;;
6452;SDS011;3259;51.080;13.712;2022-08-01T08:29:17;1.00;;;0.60;;
6452;SDS011;3259;51.080;13.712;2022-08-01T08:32:08;1.35;;;0.60;;
6452;SDS011;3259;51.080;13.712;2022-08-01T08:34:57;2.45;;;0.60;;
6452;SDS011;3259;51.080;13.712;2022-08-01T08:37:48;0.75;;;0.50;;
6452;SDS011;3259;51.080;13.712;2022-08-01T08:40:41;0.50;;;0.50;;
6452;SDS011;3259;51.080;13.712;2022-08-01T08:43:30;0.50;;;0.50;;
6452;SDS011;3259;51.080;13.712;2022-08-01T08:46:19;0.50;;;0.40;;
6452;SDS011;3259;51.080;13.712;2022-08-01T08:49:15;0.68;;;0.68;;
6452;SDS011;3259;51.080;13.712;2022-08-01T08:52:05;1.85;;;0.47;;
6452;SDS011;3259;51.080;13.712;2022-08-01T08:54:56;0.50;;;0.50;;
6452;SDS011;3259;51.080;13.712;2022-08-01T08:57:46;1.10;;;0.60;;
6452;SDS011;3259;51.080;13.712;2022-08-01T09:00:38;1.60;;;0.60;;
6452;SDS011;3259;51.080;13.712;2022-08-01T09:03:34;0.65;;;0.65;;
6452;SDS011;3259;51.080;13.712;2022-08-01T09:06:23;0.50;;;0.22;;
6452;SDS011;3259;51.080;13.712;2022-08-01T09:09:13;0.52;;;0.52;;
6452;SDS011;3259;51.080;13.712;2022-08-01T09:12:03;0.30;;;0.30;;
6452;SDS011;3259;51.080;13.712;2022-08-01T09:14:52;0.30;;;0.30;;
6452;SDS011;3259;51.080;13.712;2022-08-01T09:17:41;0.63;;;0.57;;
6452;SDS011;3259;51.080;13.712;2022-08-01T09:20:30;0.50;;;0.50;;
6452;SDS011;3259;51.080;13.712;2022-08-01T09:23:30;0.63;;;0.63;;
6452;SDS011;3259;51.080;13.712;2022-08-01T09:26:20;2.88;;;0.70;;
6452;SDS011;3259;51.080;13.712;2022-08-01T09:29:18;0.50;;;0.50;;
6452;SDS011;3259;51.080;13.712;2022-08-01T09:32:26;3.30;;;0.70;;
6452;SDS011;3259;51.080;13.712;2022-08-01T09:35:24;0.47;;;0.47;;
6452;SDS011;3259;51.080;13.712;2022-08-01T09:38:18;0.38;;;0.38;;
6452;SDS011;3259;51.080;13.712;2022-08-01T09:41:07;1.70;;;0.70;;
6452;SDS011;3259;51.080;13.712;2022-08-01T09:43:59;1.90;;;0.85;;
6452;SDS011;3259;51.080;13.712;2022-08-01T09:46:55;0.95;;;0.68;;
6452;SDS011;3259;51.080;13.712;2022-08-01T09:49:44;0.55;;;0.55;;
6452;SDS011;3259;51.080;13.712;2022-08-01T09:52:38;0.50;;;0.30;;
6452;SDS011;3259;51.080;13.712;2022-08-01T09:55:27;0.50;;;0.50;;
6452;SDS011;3259;51.080;13.712;2022-08-01T09:58:15;2.13;;;0.60;;
6452;SDS011;3259;51.080;13.712;2022-08-01T10:01:07;0.40;;;0.40;;
6452;SDS011;3259;51.080;13.712;2022-08-01T10:04:06;0.50;;;0.32;;
6452;SDS011;3259;51.080;13.712;2022-08-01T10:07:03;0.75;;;0.30;;
6452;SDS011;3259;51.080;13.712;2022-08-01T10:09:52;0.20;;;0.20;;
6452;SDS011;3259;51.080;13.712;2022-08-01T10:12:41;0.35;;;0.20;;
6452;SDS011;3259;51.080;13.712;2022-08-01T10:15:34;0.25;;;0.25;;
6452;SDS011;3259;51.080;13.712;2022-08-01T10:18:24;0.80;;;0.30;;
6452;SDS011;3259;51.080;13.712;2022-08-01T10:21:14;0.22;;;0.22;;
6452;SDS011;3259;51.080;13.712;2022-08-01T10:24:25;2.20;;;0.38;;
6452;SDS011;3259;51.080;13.712;2022-08-01T10:27:15;2.67;;;0.25;;
6452;SDS011;3259;51.080;13.712;2022-08-01T10:30:21;0.98;;;0.20;;
6452;SDS011;3259;51.080;13.712;2022-08-01T10:33:10;1.17;;;0.40;;
6452;SDS011;3259;51.080;13.712;2022-08-01T10:36:05;0.63;;;0.20;;
6452;SDS011;3259;51.080;13.712;2022-08-01T10:38:56;0.73;;;0.30;;
6452;SDS011;3259;51.080;13.712;2022-08-01T10:41:45;0.30;;;0.30;;
6452;SDS011;3259;51.080;13.712;2022-08-01T10:44:36;0.52;;;0.20;;
6452;SDS011;3259;51.080;13.712;2022-08-01T10:47:27;1.90;;;0.20;;
6452;SDS011;3259;51.080;13.712;2022-08-01T10:50:37;0.17;;;0.17;;
6452;SDS011;3259;51.080;13.712;2022-08-01T10:53:27;0.20;;;0.20;;
6452;SDS011;3259;51.080;13.712;2022-08-01T10:56:36;0.15;;;0.15;;
6452;SDS011;3259;51.080;13.712;2022-08-01T10:59:28;0.20;;;0.20;;
6452;SDS011;3259;51.080;13.712;2022-08-01T11:02:38;0.10;;;0.10;;
6452;SDS011;3259;51.080;13.712;2022-08-01T11:05:32;2.17;;;0.20;;
6452;SDS011;3259;51.080;13.712;2022-08-01T11:08:22;0.10;;;0.05;;
6452;SDS011;3259;51.080;13.712;2022-08-01T11:11:11;0.10;;;0.10;;
6452;SDS011;3259;51.080;13.712;2022-08-01T11:14:02;1.08;;;0.15;;
6452;SDS011;3259;51.080;13.712;2022-08-01T11:16:56;0.10;;;0.10;;
6452;SDS011;3259;51.080;13.712;2022-08-01T11:26:21;0.08;;;0.08;;
6452;SDS011;3259;51.080;13.712;2022-08-01T11:29:17;0.38;;;0.17;;
6452;SDS011;3259;51.080;13.712;2022-08-01T11:32:23;0.47;;;0.20;;
6452;SDS011;3259;51.080;13.712;2022-08-01T11:35:12;0.25;;;0.20;;
6452;SDS011;3259;51.080;13.712;2022-08-01T11:41:15;0.70;;;0.20;;
6452;SDS011;3259;51.080;13.712;2022-08-01T11:44:24;0.10;;;0.10;;
6452;SDS011;3259;51.080;13.712;2022-08-01T11:47:16;0.30;;;0.10;;
6452;SDS011;3259;51.080;13.712;2022-08-01T11:50:07;1.00;;;0.10;;
6452;SDS011;3259;51.080;13.712;2022-08-01T11:53:18;0.22;;;0.22;;
6452;SDS011;3259;51.080;13.712;2022-08-01T11:56:07;0.55;;;0.10;;
6452;SDS011;3259;51.080;13.712;2022-08-01T11:58:58;0.20;;;0.20;;
6452;SDS011;3259;51.080;13.712;2022-08-01T12:01:50;0.10;;;0.10;;
6452;SDS011;3259;51.080;13.712;2022-08-01T12:04:50;0.43;;;0.17;;
6452;SDS011;3259;51.080;13.712;2022-08-01T12:07:42;1.15;;;0.30;;
6452;SDS011;3259;51.080;13.712;2022-08-01T12:10:34;0.15;;;0.15;;
6452;SDS011;3259;51.080;13.712;2022-08-01T12:13:41;0.17;;;0.15;;
6452;SDS011;3259;51.080;13.712;2022-08-01T12:16:31;0.20;;;0.10;;
6452;SDS011;3259;51.080;13.712;2022-08-01T12:19:22;0.10;;;0.10;;
6452;SDS011;3259;51.080;13.712;2022-08-01T12:22:12;0.90;;;0.20;;
6452;SDS011;3259;51.080;13.712;2022-08-01T12:25:04;0.40;;;0.40;;
6452;SDS011;3259;51.080;13.712;2022-08-01T12:27:54;0.85;;;0.85;;
6452;SDS011;3259;51.080;13.712;2022-08-01T12:30:46;0.43;;;0.32;;
6452;SDS011;3259;51.080;13.712;2022-08-01T12:33:36;0.28;;;0.28;;
6452;SDS011;3259;51.080;13.712;2022-08-01T12:36:28;3.20;;;0.68;;
6452;SDS011;3259;51.080;13.712;2022-08-01T12:39:17;0.25;;;0.25;;
6452;SDS011;3259;51.080;13.712;2022-08-01T12:42:06;0.70;;;0.30;;
6452;SDS011;3259;51.080;13.712;2022-08-01T12:44:56;0.38;;;0.10;;
6452;SDS011;3259;51.080;13.712;2022-08-01T12:47:45;1.92;;;0.10;;
6452;SDS011;3259;51.080;13.712;2022-08-01T12:50:35;1.10;;;0.20;;
6452;SDS011;3259;51.080;13.712;2022-08-01T12:53:26;2.10;;;0.28;;
6452;SDS011;3259;51.080;13.712;2022-08-01T12:56:30;4.68;;;0.38;;
6452;SDS011;3259;51.080;13.712;2022-08-01T12:59:20;0.17;;;0.17;;
6452;SDS011;3259;51.080;13.712;2022-08-01T13:02:11;0.13;;;0.13;;
6452;SDS011;3259;51.080;13.712;2022-08-01T13:05:00;0.17;;;0.17;;
6452;SDS011;3259;51.080;13.712;2022-08-01T13:07:49;0.10;;;0.10;;
6452;SDS011;3259;51.080;13.712;2022-08-01T13:10:39;0.35;;;0.30;;
6452;SDS011;3259;51.080;13.712;2022-08-01T13:13:37;1.95;;;0.28;;
6452;SDS011;3259;51.080;13.712;2022-08-01T13:16:26;0.65;;;0.10;;
6452;SDS011;3259;51.080;13.712;2022-08-01T13:19:43;0.13;;;0.13;;
6452;SDS011;3259;51.080;13.712;2022-08-01T13:22:33;4.38;;;0.28;;
6452;SDS011;3259;51.080;13.712;2022-08-01T13:25:23;0.47;;;0.20;;
6452;SDS011;3259;51.080;13.712;2022-08-01T13:28:17;0.70;;;0.65;;
6452;SDS011;3259;51.080;13.712;2022-08-01T13:31:07;1.10;;;0.20;;
6452;SDS011;3259;51.080;13.712;2022-08-01T13:33:57;0.57;;;0.32;;
6452;SDS011;3259;51.080;13.712;2022-08-01T13:36:46;0.77;;;0.30;;
6452;SDS011;3259;51.080;13.712;2022-08-01T13:39:35;2.55;;;0.32;;
6452;SDS011;3259;51.080;13.712;2022-08-01T13:42:30;1.30;;;0.10;;
6452;SDS011;3259;51.080;13.712;2022-08-01T13:45:20;1.23;;;0.22;;
6452;SDS011;3259;51.080;13.712;2022-08-01T13:48:12;3.28;;;0.20;;
6452;SDS011;3259;51.080;13.712;2022-08-01T13:51:04;0.40;;;0.40;;
6452;SDS011;3259;51.080;13.712;2022-08-01T13:54:08;0.68;;;0.20;;
6452;SDS011;3259;51.080;13.712;2022-08-01T13:56:56;0.10;;;0.10;;
6452;SDS011;3259;51.080;13.712;2022-08-01T13:59:45;1.13;;;0.20;;
6452;SDS011;3259;51.080;13.712;2022-08-01T14:02:35;1.08;;;0.10;;
6452;SDS011;3259;51.080;13.712;2022-08-01T14:05:24;0.20;;;0.20;;
6452;SDS011;3259;51.080;13.712;2022-08-01T14:08:12;3.85;;;0.30;;
6452;SDS011;3259;51.080;13.712;2022-08-01T14:11:03;0.45;;;0.20;;
6452;SDS011;3259;51.080;13.712;2022-08-01T14:13:53;0.32;;;0.20;;
6452;SDS011;3259;51.080;13.712;2022-08-01T14:16:42;0.30;;;0.30;;
6452;SDS011;3259;51.080;13.712;2022-08-01T14:19:33;0.43;;;0.25;;
6452;SDS011;3259;51.080;13.712;2022-08-01T14:22:30;0.73;;;0.30;;
6452;SDS011;3259;51.080;13.712;2022-08-01T14:25:21;0.32;;;0.32;;
6452;SDS011;3259;51.080;13.712;2022-08-01T14:28:29;0.52;;;0.30;;
6452;SDS011;3259;51.080;13.712;2022-08-01T14:31:18;0.47;;;0.47;;
6452;SDS011;3259;51.080;13.712;2022-08-01T14:34:07;0.20;;;0.20;;
6452;SDS011;3259;51.080;13.712;2022-08-01T14:36:57;0.50;;;0.25;;
6452;SDS011;3259;51.080;13.712;2022-08-01T14:39:46;0.93;;;0.50;;
6452;SDS011;3259;51.080;13.712;2022-08-01T14:42:40;0.30;;;0.30;;
6452;SDS011;3259;51.080;13.712;2022-08-01T14:45:30;1.90;;;0.60;;
6452;SDS011;3259;51.080;13.712;2022-08-01T14:48:19;0.85;;;0.35;;
6452;SDS011;3259;51.080;13.712;2022-08-01T14:51:08;1.45;;;0.50;;
6452;SDS011;3259;51.080;13.712;2022-08-01T14:53:58;0.30;;;0.30;;
6452;SDS011;3259;51.080;13.712;2022-08-01T14:56:46;0.30;;;0.30;;
6452;SDS011;3259;51.080;13.712;2022-08-01T14:59:38;0.25;;;0.25;;
6452;SDS011;3259;51.080;13.712;2022-08-01T15:02:26;1.95;;;0.32;;
6452;SDS011;3259;51.080;13.712;2022-08-01T15:05:15;1.25;;;0.30;;
6452;SDS011;3259;51.080;13.712;2022-08-01T15:08:08;0.98;;;0.30;;
6452;SDS011;3259;51.080;13.712;2022-08-01T15:10:58;0.30;;;0.30;;
6452;SDS011;3259;51.080;13.712;2022-08-01T15:13:48;1.90;;;0.40;;
6452;SDS011;3259;51.080;13.712;2022-08-01T15:16:57;0.63;;;0.63;;
6452;SDS011;3259;51.080;13.712;2022-08-01T15:19:46;0.25;;;0.25;;
6452;SDS011;3259;51.080;13.712;2022-08-01T15:22:35;0.43;;;0.43;;
6452;SDS011;3259;51.080;13.712;2022-08-01T15:25:24;0.98;;;0.35;;
6452;SDS011;3259;51.080;13.712;2022-08-01T15:28:28;0.38;;;0.38;;
6452;SDS011;3259;51.080;13.712;2022-08-01T15:31:16;3.50;;;0.30;;
6452;SDS011;3259;51.080;13.712;2022-08-01T15:34:05;0.30;;;0.30;;
6452;SDS011;3259;51.080;13.712;2022-08-01T15:36:54;2.60;;;0.35;;
6452;SDS011;3259;51.080;13.712;2022-08-01T15:39:43;0.25;;;0.25;;
6452;SDS011;3259;51.080;13.712;2022-08-01T15:42:34;0.40;;;0.30;;
6452;SDS011;3259;51.080;13.712;2022-08-01T15:45:23;2.28;;;0.38;;
6452;SDS011;3259;51.080;13.712;2022-08-01T15:48:32;0.65;;;0.50;;
6452;SDS011;3259;51.080;13.712;2022-08-01T15:51:25;0.85;;;0.60;;
6452;SDS011;3259;51.080;13.712;2022-08-01T15:54:14;1.33;;;0.55;;
6452;SDS011;3259;51.080;13.712;2022-08-01T15:57:04;2.38;;;0.30;;
6452;SDS011;3259;51.080;13.712;2022-08-01T15:59:54;3.30;;;0.40;;
6452;SDS011;3259;51.080;13.712;2022-08-01T16:02:45;0.32;;;0.20;;
6452;SDS011;3259;51.080;13.712;2022-08-01T16:05:34;2.55;;;0.40;;
6452;SDS011;3259;51.080;13.712;2022-08-01T16:08:29;1.25;;;0.30;;
6452;SDS011;3259;51.080;13.712;2022-08-01T16:11:18;4.13;;;0.50;;
6452;SDS011;3259;51.080;13.712;2022-08-01T16:14:07;1.92;;;0.32;;
6452;SDS011;3259;51.080;13.712;2022-08-01T16:16:55;0.75;;;0.40;;
6452;SDS011;3259;51.080;13.712;2022-08-01T16:19:45;0.93;;;0.22;;
6452;SDS011;3259;51.080;13.712;2022-08-01T16:22:36;0.82;;;0.40;;
6452;SDS011;3259;51.080;13.712;2022-08-01T16:25:24;3.13;;;0.38;;
6452;SDS011;3259;51.080;13.712;2022-08-01T16:28:13;2.03;;;0.38;;
6452;SDS011;3259;51.080;13.712;2022-08-01T16:31:02;0.85;;;0.50;;
6452;SDS011;3259;51.080;13.712;2022-08-01T16:34:11;0.25;;;0.25;;
6452;SDS011;3259;51.080;13.712;2022-08-01T16:37:02;1.38;;;0.40;;
6452;SDS011;3259;51.080;13.712;2022-08-01T16:39:53;2.25;;;0.30;;
6452;SDS011;3259;51.080;13.712;2022-08-01T16:42:42;0.25;;;0.22;;
6452;SDS011;3259;51.080;13.712;2022-08-01T16:45:30;0.20;;;0.20;;
6452;SDS011;3259;51.080;13.712;2022-08-01T16:48:19;1.85;;;0.35;;
6452;SDS011;3259;51.080;13.712;2022-08-01T16:51:07;0.20;;;0.20;;
6452;SDS011;3259;51.080;13.712;2022-08-01T16:53:57;0.50;;;0.32;;
6452;SDS011;3259;51.080;13.712;2022-08-01T16:56:46;0.25;;;0.25;;
6452;SDS011;3259;51.080;13.712;2022-08-01T16:59:37;1.55;;;0.30;;
6452;SDS011;3259;51.080;13.712;2022-08-01T17:02:27;2.00;;;0.40;;
6452;SDS011;3259;51.080;13.712;2022-08-01T17:05:16;1.75;;;0.40;;
6452;SDS011;3259;51.080;13.712;2022-08-01T17:08:06;0.30;;;0.20;;
6452;SDS011;3259;51.080;13.712;2022-08-01T17:10:59;0.38;;;0.38;;
6452;SDS011;3259;51.080;13.712;2022-08-01T17:13:50;6.40;;;0.43;;
6452;SDS011;3259;51.080;13.712;2022-08-01T17:16:39;0.50;;;0.20;;
6452;SDS011;3259;51.080;13.712;2022-08-01T17:19:27;0.75;;;0.32;;
6452;SDS011;3259;51.080;13.712;2022-08-01T17:22:19;0.45;;;0.30;;
6452;SDS011;3259;51.080;13.712;2022-08-01T17:25:08;0.90;;;0.25;;
6452;SDS011;3259;51.080;13.712;2022-08-01T17:28:03;0.40;;;0.40;;
6452;SDS011;3259;51.080;13.712;2022-08-01T17:30:51;1.30;;;0.20;;
6452;SDS011;3259;51.080;13.712;2022-08-01T17:33:40;1.75;;;0.20;;
6452;SDS011;3259;51.080;13.712;2022-08-01T17:36:32;0.65;;;0.40;;
6452;SDS011;3259;51.080;13.712;2022-08-01T17:39:20;0.22;;;0.22;;